Time;durP1;ratioP1;P1;durP2;ratioP2;P2;SDS_P1;SDS_P2;PMS_P1;PMS_P2;Temp;Humidity;BMP_temperature;BMP_pressure;BME280_temperature;BME280_humidity;BME280_pressure;Samples;Min_cycle;Max_cycle;Signal;HPM_P1;HPM_P2
2022/11/27 00:01:31;;;;;;;20.15;12.05;;;7.90;99.90;;;;;;4953097;28;20027;-50
2022/11/27 00:03:57;;;;;;;24.33;14.35;;;7.90;99.90;;;;;;4967237;28;20127;-47
2022/11/27 00:06:24;;;;;;;21.92;14.27;;;7.80;99.90;;;;;;4952792;29;20126;-48
2022/11/27 00:08:50;;;;;;;23.10;13.35;;;7.80;99.90;;;;;;4953111;28;20031;-49
2022/11/27 00:11:21;;;;;;;21.88;14.35;;;7.80;99.90;;;;;;4952839;28;20038;-46
2022/11/27 00:13:47;;;;;;;19.88;13.65;;;7.80;99.90;;;;;;4952167;28;20423;-49
2022/11/27 00:16:13;;;;;;;21.85;13.95;;;7.80;99.90;;;;;;4952992;28;20255;-48
2022/11/27 00:18:39;;;;;;;22.30;11.20;;;7.70;99.90;;;;;;4951707;29;20070;-51
2022/11/27 00:21:07;;;;;;;16.02;9.23;;;7.80;99.90;;;;;;4954131;28;20035;-49
2022/11/27 00:23:35;;;;;;;19.92;10.77;;;7.80;99.90;;;;;;4955898;28;20086;-51
2022/11/27 00:26:00;;;;;;;15.18;10.98;;;7.70;99.90;;;;;;4956411;28;20110;-52
2022/11/27 00:28:27;;;;;;;19.65;11.82;;;7.70;99.90;;;;;;4956291;29;20127;-51
2022/11/27 00:31:00;;;;;;;21.60;12.27;;;7.70;99.90;;;;;;4956405;29;20062;-49
2022/11/27 00:33:26;;;;;;;22.67;11.88;;;7.70;99.90;;;;;;4955786;28;20038;-52
2022/11/27 00:35:52;;;;;;;20.55;12.43;;;7.70;99.90;;;;;;4956333;29;20483;-51
2022/11/27 00:38:19;;;;;;;23.17;13.85;;;7.70;99.90;;;;;;4956304;28;20109;-45
2022/11/27 00:40:45;;;;;;;25.15;14.52;;;7.60;99.90;;;;;;4956386;28;20031;-49
2022/11/27 00:43:10;;;;;;;24.02;14.27;;;7.60;99.90;;;;;;4970352;28;20078;-50
2022/11/27 00:45:36;;;;;;;28.83;14.98;;;7.60;99.90;;;;;;4956171;29;20031;-51
2022/11/27 00:48:01;;;;;;;24.67;14.38;;;7.60;99.90;;;;;;4954930;29;20456;-50
2022/11/27 00:50:30;;;;;;;26.85;14.68;;;7.50;99.90;;;;;;4956119;29;20034;-48
2022/11/27 00:52:56;;;;;;;22.10;14.32;;;7.50;99.90;;;;;;4955545;28;20157;-49
2022/11/27 00:55:22;;;;;;;27.13;15.90;;;7.50;99.90;;;;;;4955142;28;20066;-49
2022/11/27 00:57:47;;;;;;;23.08;14.75;;;7.40;99.90;;;;;;4956126;29;20031;-49
2022/11/27 01:00:13;;;;;;;28.80;15.38;;;7.40;99.90;;;;;;4956224;29;20438;-50
2022/11/27 01:02:39;;;;;;;25.02;15.43;;;7.40;99.90;;;;;;4955272;28;20038;-50
2022/11/27 01:05:05;;;;;;;30.45;15.38;;;7.40;99.90;;;;;;4956007;28;20461;-50
2022/11/27 01:07:30;;;;;;;29.05;15.50;;;7.40;99.90;;;;;;4957164;28;20034;-48
2022/11/27 01:09:56;;;;;;;21.20;14.07;;;7.20;99.90;;;;;;4955626;28;20019;-48
2022/11/27 01:12:21;;;;;;;24.83;13.38;;;7.20;99.90;;;;;;4954959;28;20043;-51
2022/11/27 01:14:47;;;;;;;20.33;11.93;;;7.20;99.90;;;;;;4955763;29;20030;-46
2022/11/27 01:17:12;;;;;;;20.38;12.73;;;7.10;99.90;;;;;;4955611;29;20031;-53
2022/11/27 01:19:38;;;;;;;28.50;13.23;;;7.10;99.90;;;;;;4955720;29;20054;-48
2022/11/27 01:22:03;;;;;;;24.50;12.30;;;7.00;99.90;;;;;;4953569;28;20039;-51
2022/11/27 01:24:29;;;;;;;15.63;10.77;;;7.10;99.90;;;;;;4955548;28;20086;-47
2022/11/27 01:26:54;;;;;;;26.13;11.80;;;6.90;99.90;;;;;;4955428;29;20472;-52
2022/11/27 01:29:20;;;;;;;22.60;10.88;;;6.90;99.90;;;;;;4955579;29;20451;-51
2022/11/27 01:31:45;;;;;;;29.20;12.18;;;6.80;99.90;;;;;;4954796;28;20027;-49
2022/11/27 01:34:16;;;;;;;20.35;11.88;;;6.80;99.90;;;;;;4954816;29;20057;-51
2022/11/27 01:36:42;;;;;;;23.83;11.35;;;6.70;99.90;;;;;;4955380;28;20023;-48
2022/11/27 01:39:14;;;;;;;22.38;11.50;;;6.60;99.90;;;;;;4955115;28;20380;-49
2022/11/27 01:41:40;;;;;;;21.15;12.18;;;6.50;99.90;;;;;;4955225;28;20035;-49
2022/11/27 01:44:23;;;;;;;22.83;11.32;;;6.50;99.90;;;;;;4954462;28;20514;-54
2022/11/27 01:47:06;;;;;;;24.50;11.38;;;6.40;99.90;;;;;;4955130;28;20090;-46
2022/11/27 01:49:37;;;;;;;21.38;10.98;;;6.40;99.90;;;;;;4955168;28;20407;-48
2022/11/27 01:52:17;;;;;;;25.55;10.93;;;6.40;99.90;;;;;;4954390;28;20035;-51
2022/11/27 01:54:49;;;;;;;18.63;10.35;;;6.30;99.90;;;;;;4955160;28;20047;-51
2022/11/27 01:57:28;;;;;;;23.77;10.98;;;6.20;99.90;;;;;;4953926;28;20027;-49
2022/11/27 01:59:56;;;;;;;18.30;10.25;;;6.20;99.90;;;;;;4954997;28;20027;-47
2022/11/27 02:02:22;;;;;;;22.55;10.52;;;6.10;99.90;;;;;;4954150;28;20035;-51
2022/11/27 02:04:47;;;;;;;28.00;11.63;;;6.10;99.90;;;;;;4954585;29;20050;-52
2022/11/27 02:07:13;;;;;;;20.25;10.38;;;6.00;99.90;;;;;;4954504;28;20042;-51
2022/11/27 02:09:39;;;;;;;27.60;11.18;;;6.00;99.90;;;;;;4954802;28;20030;-48
2022/11/27 02:12:23;;;;;;;20.90;10.85;;;6.00;99.90;;;;;;4953807;28;20055;-52
2022/11/27 02:15:12;;;;;;;29.83;11.65;;;6.00;99.90;;;;;;4955060;28;20019;-48
2022/11/27 02:17:57;;;;;;;25.83;11.10;;;5.90;99.90;;;;;;4954805;28;20023;-49
2022/11/27 02:20:31;;;;;;;19.63;11.73;;;5.90;99.90;;;;;;4954945;28;20058;-50
2022/11/27 02:23:27;;;;;;;19.15;10.85;;;5.80;99.90;;;;;;4953762;28;20074;-52
2022/11/27 02:26:01;;;;;;;22.67;11.13;;;5.80;99.90;;;;;;4954393;29;20067;-49
2022/11/27 02:28:38;;;;;;;29.05;11.73;;;5.80;99.90;;;;;;4954313;29;20483;-52
2022/11/27 02:31:08;;;;;;;19.65;11.00;;;5.80;99.90;;;;;;4954650;29;20032;-49
2022/11/27 02:33:42;;;;;;;29.13;10.73;;;5.70;99.90;;;;;;4953812;29;20027;-49
2022/11/27 02:36:13;;;;;;;24.73;12.50;;;5.60;99.90;;;;;;4954456;28;20027;-50
2022/11/27 02:38:58;;;;;;;20.95;11.57;;;5.60;99.90;;;;;;4954323;28;20369;-51
2022/11/27 02:41:29;;;;;;;24.48;10.55;;;5.60;99.90;;;;;;4954405;28;20395;-49
2022/11/27 02:43:55;;;;;;;22.17;11.35;;;5.50;99.90;;;;;;4952809;28;20042;-51
2022/11/27 02:46:21;;;;;;;22.15;11.75;;;5.50;99.90;;;;;;4954025;28;20503;-49
2022/11/27 02:48:57;;;;;;;21.83;11.52;;;5.40;99.90;;;;;;4954908;28;20039;-48
2022/11/27 02:51:30;;;;;;;27.63;12.45;;;5.40;99.90;;;;;;4954371;28;20023;-52
2022/11/27 02:54:02;;;;;;;18.25;11.43;;;5.30;99.90;;;;;;4953818;28;20475;-48
2022/11/27 02:56:30;;;;;;;25.52;11.57;;;5.30;99.90;;;;;;4953442;28;20035;-49
2022/11/27 02:58:59;;;;;;;29.98;13.48;;;5.10;99.90;;;;;;4954340;28;20089;-47
2022/11/27 03:01:30;;;;;;;25.65;13.63;;;5.10;99.90;;;;;;4952976;29;20475;-49
2022/11/27 03:03:58;;;;;;;26.65;12.68;;;5.10;99.90;;;;;;4968855;28;20031;-47
2022/11/27 03:06:32;;;;;;;22.55;11.93;;;5.00;99.90;;;;;;4953943;28;20039;-50
2022/11/27 03:09:07;;;;;;;19.70;11.25;;;5.00;99.90;;;;;;4954405;28;20372;-47
2022/11/27 03:11:33;;;;;;;29.40;11.73;;;5.00;99.90;;;;;;4954330;28;20028;-47
2022/11/27 03:14:02;;;;;;;21.88;12.00;;;5.00;99.90;;;;;;4953288;28;20030;-48
2022/11/27 03:16:42;;;;;;;23.45;12.75;;;4.90;99.90;;;;;;4953907;28;20090;-49
2022/11/27 03:19:31;;;;;;;20.45;13.00;;;4.90;99.90;;;;;;4954381;28;20038;-48
2022/11/27 03:21:59;;;;;;;22.00;12.38;;;4.90;99.90;;;;;;4953412;28;20403;-50
2022/11/27 03:24:27;;;;;;;26.08;12.07;;;4.90;99.90;;;;;;4953816;28;20031;-50
2022/11/27 03:26:52;;;;;;;24.98;11.60;;;4.80;99.90;;;;;;4954054;28;20027;-48
2022/11/27 03:29:27;;;;;;;22.77;11.95;;;4.90;99.90;;;;;;4953649;29;20035;-49
2022/11/27 03:31:52;;;;;;;26.02;12.70;;;4.90;99.90;;;;;;4953229;28;20090;-50
2022/11/27 03:34:18;;;;;;;23.38;13.02;;;4.90;99.90;;;;;;4953699;28;20595;-49
2022/11/27 03:36:44;;;;;;;24.52;12.23;;;4.90;99.90;;;;;;4953521;29;20027;-47
2022/11/27 03:39:10;;;;;;;23.63;12.32;;;4.80;99.90;;;;;;4953668;28;20050;-47
2022/11/27 03:42:13;;;;;;;22.30;11.57;;;4.70;99.90;;;;;;4953501;28;20492;-48
2022/11/27 03:44:53;;;;;;;25.25;13.13;;;4.80;99.90;;;;;;4968460;28;20090;-48
2022/11/27 03:47:48;;;;;;;25.35;12.85;;;4.70;99.90;;;;;;4953289;28;20075;-48
2022/11/27 03:50:34;;;;;;;22.40;12.52;;;4.70;99.90;;;;;;4953647;28;20055;-47
2022/11/27 03:53:18;;;;;;;21.67;11.68;;;4.60;99.90;;;;;;4952903;28;20102;-48
2022/11/27 03:56:05;;;;;;;25.55;12.13;;;4.60;99.90;;;;;;4953761;28;20380;-48
2022/11/27 03:58:42;;;;;;;26.50;11.68;;;4.60;99.90;;;;;;4957251;29;20024;-47
2022/11/27 04:01:11;;;;;;;24.35;13.07;;;4.60;99.90;;;;;;4957082;28;20023;-50
2022/11/27 04:03:37;;;;;;;26.17;12.40;;;4.50;99.90;;;;;;4956603;28;20098;-48
2022/11/27 04:06:03;;;;;;;33.33;14.02;;;4.50;99.90;;;;;;4956852;28;20031;-50
2022/11/27 04:08:28;;;;;;;23.85;12.10;;;4.50;99.90;;;;;;4956945;29;20031;-49
2022/11/27 04:10:54;;;;;;;27.30;13.43;;;4.40;99.90;;;;;;4957040;29;20072;-53
2022/11/27 04:13:19;;;;;;;30.20;13.60;;;4.40;99.90;;;;;;4956183;29;20030;-48
2022/11/27 04:15:45;;;;;;;27.65;13.18;;;4.40;99.90;;;;;;4956896;28;20487;-50
2022/11/27 04:18:10;;;;;;;25.77;13.98;;;4.40;99.90;;;;;;4956715;29;20074;-51
2022/11/27 04:20:36;;;;;;;27.20;13.15;;;4.30;99.90;;;;;;4957153;29;20058;-52
2022/11/27 04:23:01;;;;;;;30.88;13.68;;;4.30;99.90;;;;;;4956233;29;20027;-46
2022/11/27 04:25:27;;;;;;;28.45;12.57;;;4.30;99.90;;;;;;4956615;28;20472;-51
2022/11/27 04:27:53;;;;;;;30.98;14.20;;;4.20;99.90;;;;;;4956817;28;20147;-50
2022/11/27 04:30:19;;;;;;;27.40;14.95;;;4.20;99.90;;;;;;4956905;29;20027;-47
2022/11/27 04:32:44;;;;;;;24.80;13.80;;;4.20;99.90;;;;;;4955893;28;20114;-48
2022/11/27 04:35:10;;;;;;;29.10;14.13;;;4.10;99.90;;;;;;4955334;28;20031;-47
2022/11/27 04:37:36;;;;;;;27.35;14.48;;;4.10;99.90;;;;;;4956537;28;20432;-51
2022/11/27 04:40:02;;;;;;;34.45;13.70;;;4.10;99.90;;;;;;4956673;28;20020;-53
2022/11/27 04:42:28;;;;;;;23.55;12.48;;;4.20;99.90;;;;;;4956015;28;20504;-48
2022/11/27 04:44:53;;;;;;;27.88;13.63;;;4.10;99.90;;;;;;4956529;29;20107;-48
2022/11/27 04:47:19;;;;;;;28.63;14.20;;;4.10;99.90;;;;;;4956645;29;20038;-50
2022/11/27 04:49:44;;;;;;;27.33;13.90;;;4.00;99.90;;;;;;4956441;28;20077;-50
2022/11/27 04:52:10;;;;;;;30.98;15.93;;;3.90;99.90;;;;;;4955715;28;20075;-48
2022/11/27 04:54:36;;;;;;;27.77;13.30;;;3.90;99.90;;;;;;4956584;29;20058;-47
2022/11/27 04:57:02;;;;;;;25.65;13.02;;;3.80;99.90;;;;;;4954427;28;20085;-49
2022/11/27 04:59:28;;;;;;;32.53;13.32;;;3.70;99.90;;;;;;4956605;28;20030;-54
2022/11/27 05:01:53;;;;;;;27.48;13.63;;;3.60;99.90;;;;;;4955824;29;20027;-49
2022/11/27 05:04:19;;;;;;;27.85;13.93;;;3.50;99.90;;;;;;4955871;29;20039;-52
2022/11/27 05:06:45;;;;;;;26.35;14.18;;;3.50;99.90;;;;;;4955193;28;20039;-49
2022/11/27 05:09:10;;;;;;;29.98;15.77;;;3.50;99.90;;;;;;4956191;28;20030;-47
2022/11/27 05:11:36;;;;;;;25.67;13.75;;;3.50;99.90;;;;;;4956012;28;20028;-49
2022/11/27 05:14:13;;;;;;;27.88;13.65;;;3.50;99.90;;;;;;4955442;29;20024;-49
2022/11/27 05:16:40;;;;;;;27.98;14.15;;;3.60;99.90;;;;;;4955506;28;20031;-47
2022/11/27 05:19:05;;;;;;;29.02;13.90;;;3.50;99.90;;;;;;4955678;28;20031;-46
2022/11/27 05:21:31;;;;;;;25.98;13.63;;;3.60;99.90;;;;;;4955560;29;20027;-49
2022/11/27 05:23:56;;;;;;;28.70;14.50;;;3.60;99.90;;;;;;4955094;29;20451;-46
2022/11/27 05:26:22;;;;;;;29.88;14.02;;;3.50;99.90;;;;;;4955378;28;20494;-49
2022/11/27 05:28:47;;;;;;;26.25;13.52;;;3.50;99.90;;;;;;4955672;29;20039;-45
2022/11/27 05:31:13;;;;;;;23.25;13.75;;;3.50;99.90;;;;;;4955854;29;20078;-47
2022/11/27 05:33:38;;;;;;;19.60;12.02;;;3.50;99.90;;;;;;4954694;29;20031;-47
2022/11/27 05:36:04;;;;;;;24.13;14.10;;;3.50;99.90;;;;;;4955527;28;20052;-47
2022/11/27 05:38:30;;;;;;;30.25;14.05;;;3.40;99.90;;;;;;4955400;28;20063;-46
2022/11/27 05:40:56;;;;;;;22.13;12.57;;;3.40;99.90;;;;;;4955531;29;20035;-50
2022/11/27 05:43:21;;;;;;;23.77;13.15;;;3.40;99.90;;;;;;4955067;28;20027;-49
2022/11/27 05:45:47;;;;;;;29.70;14.77;;;3.40;99.90;;;;;;4954017;29;20479;-45
2022/11/27 05:48:12;;;;;;;27.05;13.63;;;3.50;99.90;;;;;;4955310;29;20074;-47
2022/11/27 05:50:38;;;;;;;30.20;14.95;;;3.50;99.90;;;;;;4955216;29;20027;-45
2022/11/27 05:53:03;;;;;;;24.98;13.73;;;3.50;99.90;;;;;;4954503;29;20034;-46
2022/11/27 05:55:29;;;;;;;24.75;13.35;;;3.50;99.90;;;;;;4954287;28;20391;-46
2022/11/27 05:57:54;;;;;;;27.42;13.40;;;3.50;99.90;;;;;;4955088;29;20026;-48
2022/11/27 06:00:20;;;;;;;28.83;12.73;;;3.50;99.90;;;;;;4955046;28;20480;-50
2022/11/27 06:02:45;;;;;;;24.17;13.77;;;3.60;99.90;;;;;;4954212;29;20562;-48
2022/11/27 06:05:11;;;;;;;25.45;12.80;;;3.50;99.90;;;;;;4954932;29;20031;-46
2022/11/27 06:07:36;;;;;;;22.15;13.43;;;3.50;99.90;;;;;;4954554;28;20057;-47
2022/11/27 06:10:02;;;;;;;24.92;14.23;;;3.50;99.90;;;;;;4954721;29;20394;-46
2022/11/27 06:12:30;;;;;;;28.02;14.80;;;3.40;99.90;;;;;;4953852;28;20031;-50
2022/11/27 06:14:56;;;;;;;29.27;13.00;;;3.30;99.90;;;;;;4954700;28;20023;-46
2022/11/27 06:17:21;;;;;;;22.80;11.05;;;3.40;99.90;;;;;;4954278;28;20031;-50
2022/11/27 06:19:47;;;;;;;26.33;13.10;;;3.30;99.90;;;;;;4954516;28;20031;-52
2022/11/27 06:22:12;;;;;;;20.08;11.63;;;3.30;99.90;;;;;;4953866;29;20491;-48
2022/11/27 06:24:38;;;;;;;17.90;10.57;;;3.30;99.90;;;;;;4954642;28;20036;-47
2022/11/27 06:27:03;;;;;;;16.55;10.07;;;3.30;99.90;;;;;;4954330;29;20126;-48
2022/11/27 06:29:29;;;;;;;21.63;9.70;;;3.30;99.90;;;;;;4954378;29;20089;-46
2022/11/27 06:31:54;;;;;;;24.88;10.70;;;3.30;99.90;;;;;;4953705;29;20063;-48
2022/11/27 06:34:20;;;;;;;26.42;11.35;;;3.30;99.90;;;;;;4953989;29;20052;-47
2022/11/27 06:36:46;;;;;;;41.05;12.75;;;3.40;99.90;;;;;;4954100;28;20490;-48
2022/11/27 06:39:11;;;;;;;103.90;13.65;;;3.40;99.90;;;;;;4954484;28;20062;-46
2022/11/27 06:41:37;;;;;;;178.93;16.30;;;3.50;99.90;;;;;;4954540;28;20384;-50
2022/11/27 06:44:03;;;;;;;55.85;13.38;;;3.50;99.90;;;;;;4953711;29;20031;-46
2022/11/27 06:46:29;;;;;;;80.90;14.05;;;3.50;99.90;;;;;;4954962;29;20031;-45
2022/11/27 06:48:56;;;;;;;121.80;14.80;;;3.50;99.90;;;;;;4954176;28;20035;-49
2022/11/27 06:51:24;;;;;;;104.03;15.23;;;3.40;99.90;;;;;;4953920;28;20023;-49
2022/11/27 06:53:51;;;;;;;93.78;14.50;;;3.50;99.90;;;;;;4953349;28;20028;-47
2022/11/27 06:56:20;;;;;;;89.72;13.13;;;3.40;99.90;;;;;;4952134;28;20479;-49
2022/11/27 06:58:45;;;;;;;26.80;13.60;;;3.40;99.90;;;;;;4954143;28;20415;-48
2022/11/27 07:01:13;;;;;;;68.20;13.45;;;3.40;99.90;;;;;;4953886;29;20027;-49
2022/11/27 07:03:39;;;;;;;183.45;14.65;;;3.40;99.90;;;;;;4952822;28;20031;-48
2022/11/27 07:06:17;;;;;;;185.65;14.82;;;3.30;99.90;;;;;;4953855;28;20404;-55
2022/11/27 07:08:42;;;;;;;87.38;14.38;;;3.30;99.90;;;;;;4953808;28;20027;-50
2022/11/27 07:11:23;;;;;;;116.72;14.20;;;3.30;99.90;;;;;;4953585;29;20023;-48
2022/11/27 07:13:50;;;;;;;123.25;13.77;;;3.30;99.90;;;;;;4953150;28;20027;-47
2022/11/27 07:16:17;;;;;;;60.67;13.32;;;3.30;99.90;;;;;;4953899;28;20036;-45
2022/11/27 07:18:44;;;;;;;110.88;14.88;;;3.30;99.90;;;;;;4953582;28;20020;-49
2022/11/27 07:21:10;;;;;;;57.63;13.05;;;3.30;99.90;;;;;;4953612;28;20054;-51
2022/11/27 07:23:37;;;;;;;114.55;16.58;;;3.40;99.90;;;;;;4952813;28;20077;-53
2022/11/27 07:26:08;;;;;;;23.63;13.85;;;3.40;99.90;;;;;;4953556;28;20041;-50
2022/11/27 07:28:34;;;;;;;48.88;13.77;;;3.40;99.90;;;;;;4953567;28;20031;-47
2022/11/27 07:31:00;;;;;;;60.45;13.27;;;3.50;99.90;;;;;;4953180;28;20365;-44
2022/11/27 07:33:26;;;;;;;100.28;13.75;;;3.60;99.90;;;;;;4952958;28;20047;-50
2022/11/27 07:36:19;;;;;;;49.80;13.65;;;3.70;99.90;;;;;;4968243;28;20027;-47
2022/11/27 07:38:45;;;;;;;45.42;12.63;;;3.80;99.90;;;;;;4953178;28;20036;-49
2022/11/27 07:41:12;;;;;;;27.73;12.65;;;3.80;99.90;;;;;;4953333;28;20031;-50
2022/11/27 07:43:38;;;;;;;72.38;13.15;;;3.90;99.90;;;;;;4952696;28;20143;-46
2022/11/27 07:46:05;;;;;;;51.17;13.13;;;3.90;99.90;;;;;;4953355;28;20032;-51
2022/11/27 07:48:31;;;;;;;68.25;12.88;;;4.00;99.90;;;;;;4953374;28;20027;-50
2022/11/27 07:50:57;;;;;;;46.75;12.68;;;4.00;99.90;;;;;;4953282;28;20088;-48
2022/11/27 07:53:22;;;;;;;26.27;12.85;;;4.10;99.90;;;;;;4952655;28;20035;-47
2022/11/27 07:55:48;;;;;;;38.03;13.45;;;4.10;99.90;;;;;;4952153;28;20391;-49
2022/11/27 07:58:13;;;;;;;58.83;13.32;;;4.20;99.90;;;;;;4953276;29;20373;-48
2022/11/27 08:00:39;;;;;;;70.90;13.23;;;4.30;99.90;;;;;;4953235;28;20054;-46
2022/11/27 08:03:05;;;;;;;159.10;14.25;;;4.20;99.90;;;;;;4952501;29;20027;-48
2022/11/27 08:05:34;;;;;;;80.97;14.05;;;4.20;99.90;;;;;;4953177;28;20439;-50
2022/11/27 08:08:00;;;;;;;73.38;13.57;;;4.10;99.90;;;;;;4953175;28;20038;-47
2022/11/27 08:10:26;;;;;;;98.43;14.82;;;4.00;99.90;;;;;;4953099;28;20110;-47
2022/11/27 08:12:51;;;;;;;78.95;15.15;;;3.90;99.90;;;;;;4952332;28;20103;-49
2022/11/27 08:15:17;;;;;;;96.28;14.73;;;3.80;99.90;;;;;;4953058;29;20039;-49
2022/11/27 08:17:42;;;;;;;110.95;15.82;;;3.70;99.90;;;;;;4952940;29;20051;-47
2022/11/27 08:20:08;;;;;;;117.85;17.75;;;3.70;99.90;;;;;;4953531;28;20488;-48
2022/11/27 08:22:34;;;;;;;77.10;18.10;;;3.60;99.90;;;;;;4952407;28;20030;-48
2022/11/27 08:25:00;;;;;;;89.95;20.52;;;3.70;99.90;;;;;;4953049;29;20035;-48
2022/11/27 08:27:25;;;;;;;93.80;20.77;;;3.70;99.90;;;;;;4946095;29;20027;-53
2022/11/27 08:29:51;;;;;;;70.47;18.58;;;3.90;99.90;;;;;;4949427;29;20027;-52
2022/11/27 08:32:16;;;;;;;78.70;20.20;;;3.80;99.90;;;;;;4951356;29;20031;-49
2022/11/27 08:34:42;;;;;;;64.50;19.33;;;3.80;99.90;;;;;;4952002;28;20054;-49
2022/11/27 08:37:08;;;;;;;60.08;19.45;;;3.80;99.90;;;;;;4952083;28;20368;-53
2022/11/27 08:39:33;;;;;;;70.38;21.40;;;3.90;99.90;;;;;;4947697;28;20035;-47
2022/11/27 08:41:59;;;;;;;50.85;19.08;;;4.00;99.90;;;;;;4952698;28;20071;-50
2022/11/27 08:44:24;;;;;;;68.05;20.20;;;4.00;99.90;;;;;;4954423;28;20027;-47
2022/11/27 08:46:50;;;;;;;70.20;20.83;;;4.10;99.90;;;;;;4970555;28;20066;-54
2022/11/27 08:49:15;;;;;;;61.35;19.67;;;4.20;99.90;;;;;;4955391;28;20046;-55
2022/11/27 08:51:41;;;;;;;78.82;18.88;;;4.30;99.90;;;;;;4955905;29;20510;-55
2022/11/27 08:54:06;;;;;;;63.47;18.15;;;4.30;99.90;;;;;;4954957;29;20027;-57
2022/11/27 08:56:32;;;;;;;33.90;18.52;;;4.30;99.90;;;;;;4950817;29;20042;-54
2022/11/27 08:58:57;;;;;;;35.45;18.35;;;4.40;99.90;;;;;;4947892;29;20082;-55
2022/11/27 09:01:31;;;;;;;37.92;17.50;;;4.50;99.90;;;;;;4955842;29;20111;-57
2022/11/27 09:03:56;;;;;;;64.28;17.70;;;4.60;99.90;;;;;;4955040;28;20498;-55
2022/11/27 09:06:27;;;;;;;34.67;17.13;;;4.60;99.90;;;;;;4955396;28;20070;-54
2022/11/27 09:08:57;;;;;;;40.55;17.55;;;4.60;99.90;;;;;;4943525;29;20563;-56
2022/11/27 09:11:22;;;;;;;38.22;16.80;;;4.50;99.90;;;;;;4947284;29;20206;-59
2022/11/27 09:13:48;;;;;;;46.00;18.58;;;4.60;99.90;;;;;;4954920;28;20019;-60
2022/11/27 09:16:16;;;;;;;41.38;16.48;;;4.50;99.90;;;;;;4938681;28;20020;-57
2022/11/27 09:18:46;;;;;;;48.83;19.23;;;4.40;99.90;;;;;;4935384;29;20042;-54
2022/11/27 09:21:14;;;;;;;33.30;18.70;;;4.30;99.90;;;;;;4945804;29;20559;-59
2022/11/27 09:23:40;;;;;;;31.17;16.80;;;4.30;99.90;;;;;;4954426;28;20042;-53
2022/11/27 09:26:08;;;;;;;29.20;16.80;;;4.30;99.90;;;;;;4954637;29;20031;-51
2022/11/27 09:28:35;;;;;;;33.13;18.73;;;4.50;99.90;;;;;;4956150;28;20090;-54
2022/11/27 09:31:02;;;;;;;34.17;17.80;;;4.60;99.90;;;;;;4954772;28;20059;-54
2022/11/27 09:33:30;;;;;;;33.03;17.30;;;4.70;99.90;;;;;;4969186;28;20066;-51
2022/11/27 09:35:56;;;;;;;28.65;16.65;;;4.90;99.90;;;;;;4955109;28;20028;-51
2022/11/27 09:38:22;;;;;;;27.50;16.02;;;4.90;99.90;;;;;;4955697;29;20059;-54
2022/11/27 09:40:54;;;;;;;29.10;16.17;;;4.90;99.90;;;;;;4952361;28;20019;-57
2022/11/27 09:43:28;;;;;;;24.58;15.80;;;4.90;99.90;;;;;;4952390;28;20295;-53
2022/11/27 09:46:00;;;;;;;33.30;16.20;;;5.00;99.90;;;;;;4951866;29;20783;-54
2022/11/27 09:48:48;;;;;;;29.80;17.30;;;5.00;99.90;;;;;;4954200;28;20403;-53
2022/11/27 09:51:24;;;;;;;31.67;17.05;;;5.20;99.90;;;;;;4954136;28;20031;-54
2022/11/27 09:54:00;;;;;;;167.90;94.72;;;5.10;99.90;;;;;;4954157;28;20028;-55
2022/11/27 09:56:27;;;;;;;31.85;17.90;;;5.00;99.90;;;;;;4955073;28;20029;-55
2022/11/27 09:58:57;;;;;;;35.33;18.63;;;4.80;99.90;;;;;;4955034;28;20037;-56
2022/11/27 10:01:32;;;;;;;34.65;17.67;;;4.80;99.90;;;;;;4952884;28;20518;-54
2022/11/27 10:04:00;;;;;;;30.77;17.15;;;4.90;99.90;;;;;;4954590;28;20042;-57
2022/11/27 10:06:43;;;;;;;31.73;18.67;;;4.90;99.90;;;;;;4955078;28;20388;-57
2022/11/27 10:09:22;;;;;;;44.10;19.98;;;4.80;99.90;;;;;;4956350;28;20034;-61
2022/11/27 10:12:01;;;;;;;39.17;19.48;;;4.80;99.90;;;;;;4955650;28;20043;-56
2022/11/27 10:14:46;;;;;;;36.60;21.00;;;4.80;99.90;;;;;;4955200;29;20031;-49
2022/11/27 10:17:12;;;;;;;37.38;19.83;;;4.90;99.90;;;;;;4954804;29;20023;-48
2022/11/27 10:19:49;;;;;;;31.50;19.52;;;4.90;99.90;;;;;;4955166;28;20027;-52
2022/11/27 10:22:17;;;;;;;30.98;19.73;;;4.90;99.90;;;;;;4954235;28;20023;-54
2022/11/27 10:25:06;;;;;;;31.63;17.77;;;4.90;99.90;;;;;;4955076;28;20031;-53
2022/11/27 10:27:42;;;;;;;32.80;17.58;;;4.90;99.90;;;;;;4954924;28;20027;-50
2022/11/27 10:30:16;;;;;;;47.83;20.45;;;5.00;99.90;;;;;;4955038;28;20027;-54
2022/11/27 10:32:45;;;;;;;31.92;18.92;;;4.90;99.90;;;;;;4953904;28;20027;-52
2022/11/27 10:35:22;;;;;;;33.95;19.70;;;4.80;99.90;;;;;;4954902;28;20534;-54
2022/11/27 10:37:57;;;;;;;32.30;19.15;;;4.90;99.90;;;;;;4954673;28;20034;-51
2022/11/27 10:40:45;;;;;;;34.45;19.02;;;4.80;99.90;;;;;;4954927;28;20034;-53
2022/11/27 10:43:19;;;;;;;31.70;18.67;;;4.90;99.90;;;;;;4953994;28;20054;-51
2022/11/27 10:45:50;;;;;;;35.85;20.30;;;4.90;99.90;;;;;;4954791;28;20022;-53
2022/11/27 10:48:16;;;;;;;37.25;20.80;;;5.00;99.90;;;;;;4954630;28;20043;-46
2022/11/27 10:50:42;;;;;;;40.05;20.30;;;5.10;99.90;;;;;;4954564;29;20059;-52
2022/11/27 10:53:13;;;;;;;28.58;19.02;;;5.20;99.90;;;;;;4953655;28;20035;-51
2022/11/27 10:56:03;;;;;;;28.67;18.90;;;5.20;99.90;;;;;;4954560;28;20067;-52
2022/11/27 10:58:55;;;;;;;29.10;18.15;;;5.10;99.90;;;;;;4954254;29;20507;-48
2022/11/27 11:01:22;;;;;;;31.88;18.45;;;5.20;99.90;;;;;;4952736;28;20455;-54
2022/11/27 11:03:48;;;;;;;32.75;18.10;;;5.30;99.90;;;;;;4953780;28;20019;-56
2022/11/27 11:06:20;;;;;;;33.15;18.75;;;5.30;99.90;;;;;;4953668;28;20039;-50
2022/11/27 11:08:46;;;;;;;31.35;18.92;;;5.30;99.90;;;;;;4954538;28;20062;-52
2022/11/27 11:11:12;;;;;;;29.67;18.88;;;5.20;99.90;;;;;;4954667;29;20039;-50
2022/11/27 11:13:40;;;;;;;128.13;73.85;;;5.10;99.90;;;;;;4953441;29;20039;-55
2022/11/27 11:16:20;;;;;;;91.07;48.42;;;5.00;99.90;;;;;;4954457;29;20069;-49
2022/11/27 11:18:48;;;;;;;36.50;21.05;;;4.90;99.90;;;;;;4953221;28;20110;-49
2022/11/27 11:21:26;;;;;;;45.42;23.48;;;4.90;99.90;;;;;;4968829;28;20035;-49
2022/11/27 11:24:06;;;;;;;31.38;20.35;;;5.00;99.90;;;;;;4953417;28;20050;-54
2022/11/27 11:26:37;;;;;;;34.42;20.25;;;5.10;99.90;;;;;;4953518;28;20114;-52
2022/11/27 11:29:16;;;;;;;31.58;19.67;;;5.20;99.90;;;;;;4953081;28;20031;-51
2022/11/27 11:31:42;;;;;;;30.40;19.38;;;5.40;99.90;;;;;;4946003;29;20039;-51
2022/11/27 11:34:45;;;;;;;31.42;18.70;;;5.60;99.90;;;;;;4946409;28;20089;-58
2022/11/27 11:37:32;;;;;;;33.92;18.83;;;5.90;99.90;;;;;;4933348;28;20035;-51
2022/11/27 11:40:00;;;;;;;25.40;17.45;;;6.20;99.90;;;;;;4950688;29;20488;-50
2022/11/27 11:42:31;;;;;;;21.65;14.10;;;6.30;99.90;;;;;;4953340;28;20040;-57
2022/11/27 11:45:05;;;;;;;19.95;14.40;;;6.50;99.90;;;;;;4945271;28;20020;-53
2022/11/27 11:47:32;;;;;;;22.48;14.80;;;6.60;99.90;;;;;;4945381;28;20024;-52
2022/11/27 11:49:58;;;;;;;29.92;17.08;;;6.60;99.90;;;;;;4944394;28;20034;-50
2022/11/27 11:52:51;;;;;;;22.80;16.30;;;6.70;99.90;;;;;;4958107;28;20027;-52
2022/11/27 11:55:25;;;;;;;23.08;16.25;;;6.90;99.90;;;;;;4938846;29;20059;-50
2022/11/27 11:58:12;;;;;;;27.08;16.92;;;7.00;99.90;;;;;;4958755;28;20023;-56
2022/11/27 12:00:45;;;;;;;28.75;17.15;;;7.10;99.90;;;;;;4943647;28;20138;-54
2022/11/27 12:03:33;;;;;;;27.52;17.25;;;6.80;99.90;;;;;;4947530;28;20063;-51
2022/11/27 12:06:01;;;;;;;27.23;17.60;;;6.70;99.90;;;;;;4939252;29;20086;-53
2022/11/27 12:08:43;;;;;;;27.73;16.70;;;6.70;99.90;;;;;;4934709;29;20496;-56
2022/11/27 12:11:53;;;;;;;23.48;17.10;;;6.60;99.90;;;;;;4933130;29;20039;-53
2022/11/27 12:14:35;;;;;;;26.48;16.42;;;6.50;99.90;;;;;;4934435;29;20023;-55
2022/11/27 12:17:21;;;;;;;26.05;16.65;;;6.50;99.90;;;;;;4941953;29;20034;-52
2022/11/27 12:19:54;;;;;;;26.05;17.83;;;6.60;99.90;;;;;;4957616;29;20047;-51
2022/11/27 12:22:59;;;;;;;25.05;16.27;;;6.70;99.90;;;;;;4957049;28;20027;-58
2022/11/27 12:25:53;;;;;;;27.08;15.60;;;6.70;99.90;;;;;;4935751;29;20079;-56
2022/11/27 12:28:54;;;;;;;22.52;15.30;;;6.70;99.90;;;;;;4935699;29;20087;-54
2022/11/27 12:31:56;;;;;;;24.30;16.30;;;6.70;99.90;;;;;;4947181;28;20035;-54
2022/11/27 12:34:40;;;;;;;27.88;16.08;;;6.70;99.90;;;;;;4955450;28;20391;-54
2022/11/27 12:37:08;;;;;;;26.13;16.73;;;6.60;99.90;;;;;;4959098;28;20042;-54
2022/11/27 12:39:53;;;;;;;204.00;114.75;;;6.60;99.90;;;;;;4957895;28;20023;-53
2022/11/27 12:42:31;;;;;;;46.13;28.67;;;6.70;99.90;;;;;;4973826;28;20031;-55
2022/11/27 12:45:16;;;;;;;24.77;16.17;;;6.70;99.90;;;;;;4964347;28;20046;-53
2022/11/27 12:47:45;;;;;;;23.17;15.40;;;6.80;99.90;;;;;;4960212;28;20027;-54
2022/11/27 12:50:29;;;;;;;22.95;15.23;;;6.90;99.90;;;;;;4963976;28;20499;-58
2022/11/27 12:53:13;;;;;;;21.73;15.98;;;7.00;99.90;;;;;;4975994;28;20031;-54